sensor_id;sensor_type;location;lat;lon;timestamp;temperature;humidity
77727;SHT30;68312;53.502;10.030;2023-08-24T00:01:20;18.86;81.74
77727;SHT30;68312;53.502;10.030;2023-08-24T00:03:46;18.83;81.78
77727;SHT30;68312;53.502;10.030;2023-08-24T00:06:12;18.75;82.09
77727;SHT30;68312;53.502;10.030;2023-08-24T00:08:38;18.68;82.23
77727;SHT30;68312;53.502;10.030;2023-08-24T00:11:03;18.59;82.65
77727;SHT30;68312;53.502;10.030;2023-08-24T00:13:29;18.56;82.90
77727;SHT30;68312;53.502;10.030;2023-08-24T00:15:55;18.52;82.89
77727;SHT30;68312;53.502;10.030;2023-08-24T00:18:21;18.47;83.11
77727;SHT30;68312;53.502;10.030;2023-08-24T00:20:48;18.42;83.02
77727;SHT30;68312;53.502;10.030;2023-08-24T00:23:15;18.35;82.40
77727;SHT30;68312;53.502;10.030;2023-08-24T00:25:41;18.30;82.35
77727;SHT30;68312;53.502;10.030;2023-08-24T00:28:07;18.23;82.29
77727;SHT30;68312;53.502;10.030;2023-08-24T00:30:32;18.20;82.37
77727;SHT30;68312;53.502;10.030;2023-08-24T00:32:58;18.15;82.55
77727;SHT30;68312;53.502;10.030;2023-08-24T00:35:23;18.10;82.74
77727;SHT30;68312;53.502;10.030;2023-08-24T00:37:49;18.04;82.90
77727;SHT30;68312;53.502;10.030;2023-08-24T00:40:16;18.05;82.96
77727;SHT30;68312;53.502;10.030;2023-08-24T00:42:44;18.03;83.09
77727;SHT30;68312;53.502;10.030;2023-08-24T00:45:12;18.04;83.08
77727;SHT30;68312;53.502;10.030;2023-08-24T00:47:44;18.04;82.91
77727;SHT30;68312;53.502;10.030;2023-08-24T00:50:11;18.05;82.90
77727;SHT30;68312;53.502;10.030;2023-08-24T00:52:40;18.03;83.11
77727;SHT30;68312;53.502;10.030;2023-08-24T00:55:07;18.00;83.58
77727;SHT30;68312;53.502;10.030;2023-08-24T00:57:33;17.97;84.42
77727;SHT30;68312;53.502;10.030;2023-08-24T01:00:05;17.96;84.66
77727;SHT30;68312;53.502;10.030;2023-08-24T01:02:32;17.93;84.95
77727;SHT30;68312;53.502;10.030;2023-08-24T01:04:59;17.91;85.48
77727;SHT30;68312;53.502;10.030;2023-08-24T01:07:25;17.93;85.68
77727;SHT30;68312;53.502;10.030;2023-08-24T01:09:52;17.93;85.78
77727;SHT30;68312;53.502;10.030;2023-08-24T01:16:00;17.89;85.66
77727;SHT30;68312;53.502;10.030;2023-08-24T01:18:25;17.84;85.53
77727;SHT30;68312;53.502;10.030;2023-08-24T01:20:54;17.76;85.76
77727;SHT30;68312;53.502;10.030;2023-08-24T01:23:51;17.67;86.08
77727;SHT30;68312;53.502;10.030;2023-08-24T01:26:20;17.59;86.27
77727;SHT30;68312;53.502;10.030;2023-08-24T01:28:47;17.47;86.28
77727;SHT30;68312;53.502;10.030;2023-08-24T01:31:16;17.34;86.68
77727;SHT30;68312;53.502;10.030;2023-08-24T01:33:43;17.26;87.08
77727;SHT30;68312;53.502;10.030;2023-08-24T01:36:12;17.24;87.35
77727;SHT30;68312;53.502;10.030;2023-08-24T01:38:38;17.24;87.56
77727;SHT30;68312;53.502;10.030;2023-08-24T01:41:25;17.24;87.83
77727;SHT30;68312;53.502;10.030;2023-08-24T01:43:54;17.26;87.80
77727;SHT30;68312;53.502;10.030;2023-08-24T01:46:24;17.24;87.71
77727;SHT30;68312;53.502;10.030;2023-08-24T01:48:52;17.24;87.76
77727;SHT30;68312;53.502;10.030;2023-08-24T01:51:18;17.26;87.72
77727;SHT30;68312;53.502;10.030;2023-08-24T01:53:45;17.25;87.66
77727;SHT30;68312;53.502;10.030;2023-08-24T01:56:12;17.24;87.70
77727;SHT30;68312;53.502;10.030;2023-08-24T01:58:38;17.22;87.72
77727;SHT30;68312;53.502;10.030;2023-08-24T02:01:05;17.17;87.72
77727;SHT30;68312;53.502;10.030;2023-08-24T02:03:31;17.12;87.75
77727;SHT30;68312;53.502;10.030;2023-08-24T02:05:56;17.08;87.93
77727;SHT30;68312;53.502;10.030;2023-08-24T02:08:22;17.07;87.99
77727;SHT30;68312;53.502;10.030;2023-08-24T02:10:47;17.01;87.84
77727;SHT30;68312;53.502;10.030;2023-08-24T02:13:13;16.88;88.01
77727;SHT30;68312;53.502;10.030;2023-08-24T02:15:38;16.83;88.14
77727;SHT30;68312;53.502;10.030;2023-08-24T02:18:07;16.74;88.39
77727;SHT30;68312;53.502;10.030;2023-08-24T02:20:37;16.66;88.47
77727;SHT30;68312;53.502;10.030;2023-08-24T02:23:04;16.56;88.70
77727;SHT30;68312;53.502;10.030;2023-08-24T02:25:30;16.53;89.14
77727;SHT30;68312;53.502;10.030;2023-08-24T02:27:56;16.49;89.31
77727;SHT30;68312;53.502;10.030;2023-08-24T02:30:21;16.49;89.39
77727;SHT30;68312;53.502;10.030;2023-08-24T02:32:46;16.45;89.64
77727;SHT30;68312;53.502;10.030;2023-08-24T02:35:12;16.37;89.67
77727;SHT30;68312;53.502;10.030;2023-08-24T02:37:38;16.33;89.92
77727;SHT30;68312;53.502;10.030;2023-08-24T02:40:04;16.33;90.05
77727;SHT30;68312;53.502;10.030;2023-08-24T02:42:33;16.34;90.35
77727;SHT30;68312;53.502;10.030;2023-08-24T02:44:58;16.37;90.33
77727;SHT30;68312;53.502;10.030;2023-08-24T02:47:24;16.39;90.14
77727;SHT30;68312;53.502;10.030;2023-08-24T02:49:49;16.42;90.37
77727;SHT30;68312;53.502;10.030;2023-08-24T02:52:21;16.40;90.38
77727;SHT30;68312;53.502;10.030;2023-08-24T02:54:46;16.39;90.32
77727;SHT30;68312;53.502;10.030;2023-08-24T02:57:14;16.34;90.17
77727;SHT30;68312;53.502;10.030;2023-08-24T02:59:40;16.32;90.20
77727;SHT30;68312;53.502;10.030;2023-08-24T03:02:09;16.29;90.21
77727;SHT30;68312;53.502;10.030;2023-08-24T03:04:34;16.20;90.23
77727;SHT30;68312;53.502;10.030;2023-08-24T03:06:59;16.20;90.41
77727;SHT30;68312;53.502;10.030;2023-08-24T03:09:25;16.16;90.30
77727;SHT30;68312;53.502;10.030;2023-08-24T03:11:50;16.08;90.37
77727;SHT30;68312;53.502;10.030;2023-08-24T03:14:16;16.04;90.32
77727;SHT30;68312;53.502;10.030;2023-08-24T03:16:41;15.95;90.34
77727;SHT30;68312;53.502;10.030;2023-08-24T03:19:06;15.88;90.50
77727;SHT30;68312;53.502;10.030;2023-08-24T03:21:32;15.85;90.65
77727;SHT30;68312;53.502;10.030;2023-08-24T03:23:58;15.79;90.70
77727;SHT30;68312;53.502;10.030;2023-08-24T03:26:23;15.77;90.77
77727;SHT30;68312;53.502;10.030;2023-08-24T03:28:49;15.72;90.82
77727;SHT30;68312;53.502;10.030;2023-08-24T03:31:15;15.68;90.85
77727;SHT30;68312;53.502;10.030;2023-08-24T03:33:42;15.62;90.94
77727;SHT30;68312;53.502;10.030;2023-08-24T03:36:07;15.61;90.97
77727;SHT30;68312;53.502;10.030;2023-08-24T03:38:33;15.61;91.28
77727;SHT30;68312;53.502;10.030;2023-08-24T03:41:03;15.65;91.31
77727;SHT30;68312;53.502;10.030;2023-08-24T03:43:32;15.61;91.29
77727;SHT30;68312;53.502;10.030;2023-08-24T03:45:58;15.60;91.31
77727;SHT30;68312;53.502;10.030;2023-08-24T03:48:24;15.57;91.16
77727;SHT30;68312;53.502;10.030;2023-08-24T03:50:49;15.54;91.12
77727;SHT30;68312;53.502;10.030;2023-08-24T03:53:15;15.49;91.08
77727;SHT30;68312;53.502;10.030;2023-08-24T03:55:40;15.47;91.17
77727;SHT30;68312;53.502;10.030;2023-08-24T03:58:06;15.43;91.27
77727;SHT30;68312;53.502;10.030;2023-08-24T04:00:32;15.40;91.29
77727;SHT30;68312;53.502;10.030;2023-08-24T04:02:57;15.37;91.39
77727;SHT30;68312;53.502;10.030;2023-08-24T04:05:23;15.33;91.41
77727;SHT30;68312;53.502;10.030;2023-08-24T04:07:48;15.30;91.54
77727;SHT30;68312;53.502;10.030;2023-08-24T04:10:14;15.27;91.57
77727;SHT30;68312;53.502;10.030;2023-08-24T04:12:39;15.26;91.65
77727;SHT30;68312;53.502;10.030;2023-08-24T04:15:05;15.26;91.79
77727;SHT30;68312;53.502;10.030;2023-08-24T04:17:31;15.27;91.88
77727;SHT30;68312;53.502;10.030;2023-08-24T04:19:56;15.26;91.91
77727;SHT30;68312;53.502;10.030;2023-08-24T04:22:21;15.29;91.98
77727;SHT30;68312;53.502;10.030;2023-08-24T04:24:47;15.30;92.02
77727;SHT30;68312;53.502;10.030;2023-08-24T04:27:12;15.29;92.10
77727;SHT30;68312;53.502;10.030;2023-08-24T04:29:38;15.31;92.09
77727;SHT30;68312;53.502;10.030;2023-08-24T04:32:03;15.34;92.14
77727;SHT30;68312;53.502;10.030;2023-08-24T04:34:29;15.37;92.11
77727;SHT30;68312;53.502;10.030;2023-08-24T04:36:55;15.43;92.12
77727;SHT30;68312;53.502;10.030;2023-08-24T04:39:20;15.46;92.23
77727;SHT30;68312;53.502;10.030;2023-08-24T04:41:46;15.46;92.20
77727;SHT30;68312;53.502;10.030;2023-08-24T04:44:11;15.50;92.32
77727;SHT30;68312;53.502;10.030;2023-08-24T04:46:36;15.54;92.19
77727;SHT30;68312;53.502;10.030;2023-08-24T04:49:02;15.54;92.15
77727;SHT30;68312;53.502;10.030;2023-08-24T04:51:28;15.58;92.22
77727;SHT30;68312;53.502;10.030;2023-08-24T04:53:54;15.60;92.15
77727;SHT30;68312;53.502;10.030;2023-08-24T04:56:19;15.62;92.21
77727;SHT30;68312;53.502;10.030;2023-08-24T04:58:58;15.65;92.17
77727;SHT30;68312;53.502;10.030;2023-08-24T05:01:26;15.62;92.18
77727;SHT30;68312;53.502;10.030;2023-08-24T05:03:52;15.68;92.17
77727;SHT30;68312;53.502;10.030;2023-08-24T05:06:19;15.67;92.19
77727;SHT30;68312;53.502;10.030;2023-08-24T05:08:45;15.71;92.16
77727;SHT30;68312;53.502;10.030;2023-08-24T05:11:12;15.72;92.15
77727;SHT30;68312;53.502;10.030;2023-08-24T05:13:40;15.72;92.07
77727;SHT30;68312;53.502;10.030;2023-08-24T05:16:06;15.71;92.07
77727;SHT30;68312;53.502;10.030;2023-08-24T05:18:31;15.71;92.07
77727;SHT30;68312;53.502;10.030;2023-08-24T05:20:56;15.72;92.05
77727;SHT30;68312;53.502;10.030;2023-08-24T05:23:22;15.71;92.10
77727;SHT30;68312;53.502;10.030;2023-08-24T05:25:47;15.72;92.10
77727;SHT30;68312;53.502;10.030;2023-08-24T05:28:13;15.75;92.17
77727;SHT30;68312;53.502;10.030;2023-08-24T05:30:38;15.75;92.26
77727;SHT30;68312;53.502;10.030;2023-08-24T05:33:04;15.77;92.18
77727;SHT30;68312;53.502;10.030;2023-08-24T05:35:29;15.75;92.25
77727;SHT30;68312;53.502;10.030;2023-08-24T05:37:54;15.78;92.27
77727;SHT30;68312;53.502;10.030;2023-08-24T05:40:20;15.84;92.29
77727;SHT30;68312;53.502;10.030;2023-08-24T05:42:45;15.89;92.29
77727;SHT30;68312;53.502;10.030;2023-08-24T05:45:10;15.95;92.26
77727;SHT30;68312;53.502;10.030;2023-08-24T05:47:37;16.02;92.20
77727;SHT30;68312;53.502;10.030;2023-08-24T05:50:03;16.08;92.16
77727;SHT30;68312;53.502;10.030;2023-08-24T05:52:28;16.19;92.14
77727;SHT30;68312;53.502;10.030;2023-08-24T05:54:54;16.23;92.07
77727;SHT30;68312;53.502;10.030;2023-08-24T05:57:19;16.30;92.04
77727;SHT30;68312;53.502;10.030;2023-08-24T05:59:44;16.42;91.98
77727;SHT30;68312;53.502;10.030;2023-08-24T06:02:10;16.57;91.94
77727;SHT30;68312;53.502;10.030;2023-08-24T06:04:35;16.64;91.68
77727;SHT30;68312;53.502;10.030;2023-08-24T06:07:00;16.77;91.22
77727;SHT30;68312;53.502;10.030;2023-08-24T06:09:26;16.88;91.03
77727;SHT30;68312;53.502;10.030;2023-08-24T06:11:51;17.05;90.80
77727;SHT30;68312;53.502;10.030;2023-08-24T06:14:17;17.18;90.30
77727;SHT30;68312;53.502;10.030;2023-08-24T06:16:42;17.35;89.39
77727;SHT30;68312;53.502;10.030;2023-08-24T06:19:07;17.49;87.90
77727;SHT30;68312;53.502;10.030;2023-08-24T06:21:33;17.67;87.08
77727;SHT30;68312;53.502;10.030;2023-08-24T06:23:58;17.87;86.61
77727;SHT30;68312;53.502;10.030;2023-08-24T06:26:24;18.04;86.03
77727;SHT30;68312;53.502;10.030;2023-08-24T06:28:49;18.17;85.78
77727;SHT30;68312;53.502;10.030;2023-08-24T06:31:14;18.31;85.24
77727;SHT30;68312;53.502;10.030;2023-08-24T06:33:41;18.37;83.88
77727;SHT30;68312;53.502;10.030;2023-08-24T06:36:07;18.51;83.83
77727;SHT30;68312;53.502;10.030;2023-08-24T06:38:33;18.62;83.62
77727;SHT30;68312;53.502;10.030;2023-08-24T06:40:59;18.68;83.72
77727;SHT30;68312;53.502;10.030;2023-08-24T06:43:26;18.73;83.32
77727;SHT30;68312;53.502;10.030;2023-08-24T06:45:51;18.79;83.68
77727;SHT30;68312;53.502;10.030;2023-08-24T06:48:17;19.03;82.63
77727;SHT30;68312;53.502;10.030;2023-08-24T06:50:43;19.23;80.30
77727;SHT30;68312;53.502;10.030;2023-08-24T06:53:09;19.46;80.05
77727;SHT30;68312;53.502;10.030;2023-08-24T06:55:34;19.79;78.83
77727;SHT30;68312;53.502;10.030;2023-08-24T06:58:00;20.02;78.08
77727;SHT30;68312;53.502;10.030;2023-08-24T07:00:25;20.20;77.37
77727;SHT30;68312;53.502;10.030;2023-08-24T07:02:51;20.18;76.45
77727;SHT30;68312;53.502;10.030;2023-08-24T07:05:16;20.12;77.19
77727;SHT30;68312;53.502;10.030;2023-08-24T07:07:45;20.08;77.87
77727;SHT30;68312;53.502;10.030;2023-08-24T07:10:11;20.09;77.49
77727;SHT30;68312;53.502;10.030;2023-08-24T07:12:37;20.18;77.01
77727;SHT30;68312;53.502;10.030;2023-08-24T07:15:05;20.19;76.79
77727;SHT30;68312;53.502;10.030;2023-08-24T07:17:31;20.20;76.90
77727;SHT30;68312;53.502;10.030;2023-08-24T07:19:56;20.26;75.85
77727;SHT30;68312;53.502;10.030;2023-08-24T07:22:21;20.33;76.23
77727;SHT30;68312;53.502;10.030;2023-08-24T07:24:47;20.44;75.88
77727;SHT30;68312;53.502;10.030;2023-08-24T07:27:18;20.53;74.69
77727;SHT30;68312;53.502;10.030;2023-08-24T07:29:44;20.60;73.78
77727;SHT30;68312;53.502;10.030;2023-08-24T07:32:10;20.70;74.60
77727;SHT30;68312;53.502;10.030;2023-08-24T07:34:36;20.81;72.83
77727;SHT30;68312;53.502;10.030;2023-08-24T07:37:02;20.91;72.81
77727;SHT30;68312;53.502;10.030;2023-08-24T07:39:27;20.83;70.48
77727;SHT30;68312;53.502;10.030;2023-08-24T07:41:53;20.95;72.40
77727;SHT30;68312;53.502;10.030;2023-08-24T07:44:19;21.32;70.02
77727;SHT30;68312;53.502;10.030;2023-08-24T07:46:45;21.66;70.30
77727;SHT30;68312;53.502;10.030;2023-08-24T07:49:10;21.90;69.14
77727;SHT30;68312;53.502;10.030;2023-08-24T07:51:36;22.00;68.06
77727;SHT30;68312;53.502;10.030;2023-08-24T07:54:01;21.89;68.72
77727;SHT30;68312;53.502;10.030;2023-08-24T07:56:27;21.92;66.54
77727;SHT30;68312;53.502;10.030;2023-08-24T07:58:53;21.96;67.45
77727;SHT30;68312;53.502;10.030;2023-08-24T08:01:18;22.07;67.98
77727;SHT30;68312;53.502;10.030;2023-08-24T08:03:44;22.24;67.44
77727;SHT30;68312;53.502;10.030;2023-08-24T08:06:09;22.73;65.41
77727;SHT30;68312;53.502;10.030;2023-08-24T08:08:35;23.72;61.49
77727;SHT30;68312;53.502;10.030;2023-08-24T08:11:02;25.07;56.98
77727;SHT30;68312;53.502;10.030;2023-08-24T08:13:31;26.03;54.26
77727;SHT30;68312;53.502;10.030;2023-08-24T08:16:05;26.86;52.21
77727;SHT30;68312;53.502;10.030;2023-08-24T08:18:32;27.06;51.80
77727;SHT30;68312;53.502;10.030;2023-08-24T08:20:58;26.68;53.52
77727;SHT30;68312;53.502;10.030;2023-08-24T08:23:23;25.73;55.14
77727;SHT30;68312;53.502;10.030;2023-08-24T08:25:49;24.80;56.70
77727;SHT30;68312;53.502;10.030;2023-08-24T08:28:16;24.20;60.33
77727;SHT30;68312;53.502;10.030;2023-08-24T08:30:42;23.86;61.75
77727;SHT30;68312;53.502;10.030;2023-08-24T08:33:07;23.95;61.08
77727;SHT30;68312;53.502;10.030;2023-08-24T08:35:33;23.97;61.85
77727;SHT30;68312;53.502;10.030;2023-08-24T08:37:58;24.20;60.76
77727;SHT30;68312;53.502;10.030;2023-08-24T08:40:25;24.41;61.92
77727;SHT30;68312;53.502;10.030;2023-08-24T08:42:57;24.61;60.12
77727;SHT30;68312;53.502;10.030;2023-08-24T08:45:25;24.40;57.28
77727;SHT30;68312;53.502;10.030;2023-08-24T08:48:01;24.37;58.47
77727;SHT30;68312;53.502;10.030;2023-08-24T08:50:27;24.53;59.74
77727;SHT30;68312;53.502;10.030;2023-08-24T08:52:52;24.91;57.63
77727;SHT30;68312;53.502;10.030;2023-08-24T08:55:19;24.78;56.58
77727;SHT30;68312;53.502;10.030;2023-08-24T08:57:48;25.07;58.41
77727;SHT30;68312;53.502;10.030;2023-08-24T09:00:15;25.31;57.18
77727;SHT30;68312;53.502;10.030;2023-08-24T09:02:43;25.65;53.75
77727;SHT30;68312;53.502;10.030;2023-08-24T09:05:11;25.56;54.75
77727;SHT30;68312;53.502;10.030;2023-08-24T09:07:39;26.34;55.12
77727;SHT30;68312;53.502;10.030;2023-08-24T09:10:06;27.60;50.76
77727;SHT30;68312;53.502;10.030;2023-08-24T09:12:33;28.91;46.67
77727;SHT30;68312;53.502;10.030;2023-08-24T09:14:59;29.70;44.46
77727;SHT30;68312;53.502;10.030;2023-08-24T09:17:25;30.13;44.95
77727;SHT30;68312;53.502;10.030;2023-08-24T09:19:53;30.34;44.34
77727;SHT30;68312;53.502;10.030;2023-08-24T09:22:18;30.84;42.33
77727;SHT30;68312;53.502;10.030;2023-08-24T09:24:44;30.74;42.33
77727;SHT30;68312;53.502;10.030;2023-08-24T09:27:18;30.89;43.14
77727;SHT30;68312;53.502;10.030;2023-08-24T09:29:53;31.05;43.02
77727;SHT30;68312;53.502;10.030;2023-08-24T09:32:28;30.92;40.60
77727;SHT30;68312;53.502;10.030;2023-08-24T09:34:55;30.75;41.90
77727;SHT30;68312;53.502;10.030;2023-08-24T09:37:20;30.93;43.15
77727;SHT30;68312;53.502;10.030;2023-08-24T09:39:46;31.34;42.19
77727;SHT30;68312;53.502;10.030;2023-08-24T09:42:13;31.87;40.66
77727;SHT30;68312;53.502;10.030;2023-08-24T09:44:44;31.57;42.48
77727;SHT30;68312;53.502;10.030;2023-08-24T09:47:11;31.84;41.57
77727;SHT30;68312;53.502;10.030;2023-08-24T09:49:36;31.30;41.35
77727;SHT30;68312;53.502;10.030;2023-08-24T09:52:06;31.00;42.67
77727;SHT30;68312;53.502;10.030;2023-08-24T09:54:37;31.22;43.26
77727;SHT30;68312;53.502;10.030;2023-08-24T09:57:05;31.37;42.62
77727;SHT30;68312;53.502;10.030;2023-08-24T09:59:34;31.40;43.71
77727;SHT30;68312;53.502;10.030;2023-08-24T10:02:00;31.23;43.35
77727;SHT30;68312;53.502;10.030;2023-08-24T10:04:34;31.18;42.70
77727;SHT30;68312;53.502;10.030;2023-08-24T10:07:10;31.02;43.97
77727;SHT30;68312;53.502;10.030;2023-08-24T10:12:11;30.99;43.10
77727;SHT30;68312;53.502;10.030;2023-08-24T10:15:04;30.85;45.51
77727;SHT30;68312;53.502;10.030;2023-08-24T10:17:33;31.09;44.72
77727;SHT30;68312;53.502;10.030;2023-08-24T10:20:00;31.61;45.62
77727;SHT30;68312;53.502;10.030;2023-08-24T10:22:35;31.46;44.87
77727;SHT30;68312;53.502;10.030;2023-08-24T10:25:02;32.11;40.89
77727;SHT30;68312;53.502;10.030;2023-08-24T10:27:29;31.70;43.30
77727;SHT30;68312;53.502;10.030;2023-08-24T10:29:58;31.71;42.84
77727;SHT30;68312;53.502;10.030;2023-08-24T10:32:25;30.69;44.52
77727;SHT30;68312;53.502;10.030;2023-08-24T10:34:51;29.08;46.94
77727;SHT30;68312;53.502;10.030;2023-08-24T10:37:25;28.60;48.21
77727;SHT30;68312;53.502;10.030;2023-08-24T10:39:51;29.06;46.97
77727;SHT30;68312;53.502;10.030;2023-08-24T10:42:16;29.80;46.96
77727;SHT30;68312;53.502;10.030;2023-08-24T10:44:46;30.75;45.81
77727;SHT30;68312;53.502;10.030;2023-08-24T10:47:18;31.22;42.12
77727;SHT30;68312;53.502;10.030;2023-08-24T10:50:04;31.69;41.71
77727;SHT30;68312;53.502;10.030;2023-08-24T10:55:00;31.23;43.18
77727;SHT30;68312;53.502;10.030;2023-08-24T10:57:34;31.81;44.52
77727;SHT30;68312;53.502;10.030;2023-08-24T11:00:08;31.50;42.81
77727;SHT30;68312;53.502;10.030;2023-08-24T11:02:50;31.29;43.84
77727;SHT30;68312;53.502;10.030;2023-08-24T11:05:27;31.70;42.82
77727;SHT30;68312;53.502;10.030;2023-08-24T11:08:04;32.04;44.39
77727;SHT30;68312;53.502;10.030;2023-08-24T11:13:18;31.63;42.48
77727;SHT30;68312;53.502;10.030;2023-08-24T11:15:49;31.21;42.77
77727;SHT30;68312;53.502;10.030;2023-08-24T11:18:28;31.36;43.76
77727;SHT30;68312;53.502;10.030;2023-08-24T11:21:13;31.56;42.33
77727;SHT30;68312;53.502;10.030;2023-08-24T11:23:39;31.82;42.71
77727;SHT30;68312;53.502;10.030;2023-08-24T11:26:05;31.66;42.91
77727;SHT30;68312;53.502;10.030;2023-08-24T11:28:31;31.37;44.68
77727;SHT30;68312;53.502;10.030;2023-08-24T11:30:58;31.13;43.60
77727;SHT30;68312;53.502;10.030;2023-08-24T11:33:34;31.16;43.13
77727;SHT30;68312;53.502;10.030;2023-08-24T11:36:03;30.78;45.41
77727;SHT30;68312;53.502;10.030;2023-08-24T11:38:41;30.91;46.63
77727;SHT30;68312;53.502;10.030;2023-08-24T11:41:15;30.75;44.94
77727;SHT30;68312;53.502;10.030;2023-08-24T11:43:43;30.63;45.70
77727;SHT30;68312;53.502;10.030;2023-08-24T11:46:08;29.86;44.33
77727;SHT30;68312;53.502;10.030;2023-08-24T11:48:34;29.37;44.73
77727;SHT30;68312;53.502;10.030;2023-08-24T11:51:02;29.34;49.54
77727;SHT30;68312;53.502;10.030;2023-08-24T11:53:29;29.48;48.53
77727;SHT30;68312;53.502;10.030;2023-08-24T11:55:57;29.65;46.19
77727;SHT30;68312;53.502;10.030;2023-08-24T11:58:22;29.82;47.99
77727;SHT30;68312;53.502;10.030;2023-08-24T12:00:48;29.66;45.80
77727;SHT30;68312;53.502;10.030;2023-08-24T12:03:14;29.46;49.50
77727;SHT30;68312;53.502;10.030;2023-08-24T12:05:40;29.54;46.45
77727;SHT30;68312;53.502;10.030;2023-08-24T12:08:05;29.34;48.28
77727;SHT30;68312;53.502;10.030;2023-08-24T12:10:32;29.38;49.04
77727;SHT30;68312;53.502;10.030;2023-08-24T12:13:05;29.63;44.77
77727;SHT30;68312;53.502;10.030;2023-08-24T12:15:34;29.55;50.56
77727;SHT30;68312;53.502;10.030;2023-08-24T12:18:14;29.38;48.04
77727;SHT30;68312;53.502;10.030;2023-08-24T12:20:40;29.25;48.44
77727;SHT30;68312;53.502;10.030;2023-08-24T12:23:07;29.34;49.36
77727;SHT30;68312;53.502;10.030;2023-08-24T12:25:42;29.66;49.51
77727;SHT30;68312;53.502;10.030;2023-08-24T12:28:15;30.07;44.61
77727;SHT30;68312;53.502;10.030;2023-08-24T12:30:49;30.76;44.79
77727;SHT30;68312;53.502;10.030;2023-08-24T12:33:30;31.18;43.49
77727;SHT30;68312;53.502;10.030;2023-08-24T12:35:57;31.12;47.12
77727;SHT30;68312;53.502;10.030;2023-08-24T12:38:26;31.46;44.64
77727;SHT30;68312;53.502;10.030;2023-08-24T12:40:52;31.54;47.35
77727;SHT30;68312;53.502;10.030;2023-08-24T12:43:18;30.81;44.05
77727;SHT30;68312;53.502;10.030;2023-08-24T12:45:43;30.79;45.96
77727;SHT30;68312;53.502;10.030;2023-08-24T12:48:09;30.31;44.02
77727;SHT30;68312;53.502;10.030;2023-08-24T12:50:37;29.96;47.32
77727;SHT30;68312;53.502;10.030;2023-08-24T12:53:03;30.30;46.25
77727;SHT30;68312;53.502;10.030;2023-08-24T12:55:32;30.63;45.06
77727;SHT30;68312;53.502;10.030;2023-08-24T12:57:58;31.11;44.70
77727;SHT30;68312;53.502;10.030;2023-08-24T13:00:24;30.89;43.41
77727;SHT30;68312;53.502;10.030;2023-08-24T13:02:50;31.21;43.29
77727;SHT30;68312;53.502;10.030;2023-08-24T13:05:16;31.87;46.00
77727;SHT30;68312;53.502;10.030;2023-08-24T13:07:42;31.74;43.12
77727;SHT30;68312;53.502;10.030;2023-08-24T13:10:08;31.08;44.12
77727;SHT30;68312;53.502;10.030;2023-08-24T13:12:34;31.25;42.93
77727;SHT30;68312;53.502;10.030;2023-08-24T13:15:01;30.69;43.64
77727;SHT30;68312;53.502;10.030;2023-08-24T13:17:27;30.78;44.40
77727;SHT30;68312;53.502;10.030;2023-08-24T13:19:53;30.72;46.37
77727;SHT30;68312;53.502;10.030;2023-08-24T13:22:18;30.99;45.93
77727;SHT30;68312;53.502;10.030;2023-08-24T13:24:44;31.08;46.58
77727;SHT30;68312;53.502;10.030;2023-08-24T13:27:10;31.30;43.77
77727;SHT30;68312;53.502;10.030;2023-08-24T13:29:39;31.27;44.48
77727;SHT30;68312;53.502;10.030;2023-08-24T13:32:05;31.12;44.93
77727;SHT30;68312;53.502;10.030;2023-08-24T13:34:31;30.38;46.57
77727;SHT30;68312;53.502;10.030;2023-08-24T13:36:57;29.83;50.09
77727;SHT30;68312;53.502;10.030;2023-08-24T13:39:25;29.18;51.70
77727;SHT30;68312;53.502;10.030;2023-08-24T13:41:53;28.90;48.57
77727;SHT30;68312;53.502;10.030;2023-08-24T13:44:19;28.55;50.72
77727;SHT30;68312;53.502;10.030;2023-08-24T13:46:44;28.02;49.89
77727;SHT30;68312;53.502;10.030;2023-08-24T13:49:09;27.91;50.44
77727;SHT30;68312;53.502;10.030;2023-08-24T13:51:35;27.85;53.82
77727;SHT30;68312;53.502;10.030;2023-08-24T13:54:00;27.82;54.02
77727;SHT30;68312;53.502;10.030;2023-08-24T13:56:25;27.57;55.49
77727;SHT30;68312;53.502;10.030;2023-08-24T13:58:51;27.29;56.50
77727;SHT30;68312;53.502;10.030;2023-08-24T14:01:16;27.37;57.53
77727;SHT30;68312;53.502;10.030;2023-08-24T14:03:43;27.32;53.94
77727;SHT30;68312;53.502;10.030;2023-08-24T14:06:09;27.33;55.96
77727;SHT30;68312;53.502;10.030;2023-08-24T14:08:36;27.37;58.27
77727;SHT30;68312;53.502;10.030;2023-08-24T14:11:01;27.24;55.71
77727;SHT30;68312;53.502;10.030;2023-08-24T14:13:28;27.27;55.28
77727;SHT30;68312;53.502;10.030;2023-08-24T14:15:54;27.32;55.40
77727;SHT30;68312;53.502;10.030;2023-08-24T14:18:21;27.40;58.61
77727;SHT30;68312;53.502;10.030;2023-08-24T14:20:47;27.55;59.17
77727;SHT30;68312;53.502;10.030;2023-08-24T14:23:13;27.90;56.29
77727;SHT30;68312;53.502;10.030;2023-08-24T14:25:38;28.00;57.26
77727;SHT30;68312;53.502;10.030;2023-08-24T14:28:04;28.19;55.54
77727;SHT30;68312;53.502;10.030;2023-08-24T14:30:31;28.15;53.01
77727;SHT30;68312;53.502;10.030;2023-08-24T14:32:56;28.23;53.54
77727;SHT30;68312;53.502;10.030;2023-08-24T14:35:22;27.98;53.05
77727;SHT30;68312;53.502;10.030;2023-08-24T14:37:47;27.60;53.57
77727;SHT30;68312;53.502;10.030;2023-08-24T14:40:13;27.55;59.01
77727;SHT30;68312;53.502;10.030;2023-08-24T14:42:41;27.23;56.19
77727;SHT30;68312;53.502;10.030;2023-08-24T14:45:07;27.17;55.44
77727;SHT30;68312;53.502;10.030;2023-08-24T14:47:32;27.04;53.74
77727;SHT30;68312;53.502;10.030;2023-08-24T14:49:58;26.76;55.52
77727;SHT30;68312;53.502;10.030;2023-08-24T14:52:23;26.67;57.55
77727;SHT30;68312;53.502;10.030;2023-08-24T14:54:48;26.62;57.61
77727;SHT30;68312;53.502;10.030;2023-08-24T14:57:14;26.54;59.96
77727;SHT30;68312;53.502;10.030;2023-08-24T14:59:39;26.44;60.84
77727;SHT30;68312;53.502;10.030;2023-08-24T15:02:05;26.25;58.31
77727;SHT30;68312;53.502;10.030;2023-08-24T15:04:30;26.17;63.00
77727;SHT30;68312;53.502;10.030;2023-08-24T15:06:57;26.07;63.32
77727;SHT30;68312;53.502;10.030;2023-08-24T15:09:22;26.00;64.17
77727;SHT30;68312;53.502;10.030;2023-08-24T15:11:49;26.04;64.12
77727;SHT30;68312;53.502;10.030;2023-08-24T15:14:14;25.94;63.50
77727;SHT30;68312;53.502;10.030;2023-08-24T15:16:40;25.96;63.17
77727;SHT30;68312;53.502;10.030;2023-08-24T15:19:05;26.00;62.29
77727;SHT30;68312;53.502;10.030;2023-08-24T15:21:31;26.03;58.25
77727;SHT30;68312;53.502;10.030;2023-08-24T15:23:56;26.18;63.07
77727;SHT30;68312;53.502;10.030;2023-08-24T15:26:22;26.13;63.11